Time;durP1;ratioP1;P1;durP2;ratioP2;P2;SDS_P1;SDS_P2;PMS_P1;PMS_P2;Temp;Humidity;BMP_temperature;BMP_pressure;BME280_temperature;BME280_humidity;BME280_pressure;Samples;Min_cycle;Max_cycle;Signal;HPM_P1;HPM_P2
2022/05/18 00:00:17;;;;;;;10.57;4.27;;;;;;;;;;5011429;28;20435;-66
2022/05/18 00:02:44;;;;;;;8.63;4.10;;;;;;;;;;5011008;28;20486;-66
2022/05/18 00:05:10;;;;;;;8.27;3.83;;;;;;;;;;5011420;28;20435;-67
2022/05/18 00:07:37;;;;;;;8.57;4.10;;;;;;;;;;4994056;28;20427;-66
2022/05/18 00:10:04;;;;;;;10.00;4.20;;;;;;;;;;5011608;28;20494;-66
2022/05/18 00:12:30;;;;;;;10.30;4.13;;;;;;;;;;4993684;28;20437;-66
2022/05/18 00:14:57;;;;;;;10.20;4.37;;;;;;;;;;5011295;28;20485;-67
2022/05/18 00:17:24;;;;;;;9.07;4.50;;;;;;;;;;5010990;28;20458;-66
2022/05/18 00:19:51;;;;;;;15.50;4.93;;;;;;;;;;5011171;28;20518;-67
2022/05/18 00:22:17;;;;;;;9.93;4.13;;;;;;;;;;5011008;28;20449;-66
2022/05/18 00:24:44;;;;;;;7.87;4.03;;;;;;;;;;5012891;28;20432;-66
2022/05/18 00:27:11;;;;;;;8.97;4.13;;;;;;;;;;5030568;28;20458;-66
2022/05/18 00:29:37;;;;;;;9.77;3.27;;;;;;;;;;5013270;28;20431;-66
2022/05/18 00:32:04;;;;;;;7.80;3.50;;;;;;;;;;5030443;28;20423;-66
2022/05/18 00:34:31;;;;;;;6.07;3.40;;;;;;;;;;5030551;28;20781;-66
2022/05/18 00:36:57;;;;;;;7.13;3.13;;;;;;;;;;5030849;28;20450;-66
2022/05/18 00:39:24;;;;;;;9.07;3.13;;;;;;;;;;5035685;28;20501;-66
2022/05/18 00:41:51;;;;;;;7.90;3.20;;;;;;;;;;5050391;28;20471;-66
2022/05/18 00:44:17;;;;;;;7.50;3.87;;;;;;;;;;5050252;28;20445;-66
2022/05/18 00:46:44;;;;;;;7.57;3.50;;;;;;;;;;5050294;28;20528;-66
2022/05/18 00:49:11;;;;;;;8.23;3.40;;;;;;;;;;5035717;28;20457;-66
2022/05/18 00:52:04;;;;;;;9.37;3.83;;;;;;;;;;5030270;28;20441;-66
2022/05/18 00:54:30;;;;;;;8.20;2.83;;;;;;;;;;5028393;28;20482;-66
2022/05/18 00:56:57;;;;;;;6.03;3.23;;;;;;;;;;5030417;28;20551;-66
2022/05/18 00:59:24;;;;;;;38.27;4.30;;;;;;;;;;5029875;28;20453;-66
2022/05/18 01:01:51;;;;;;;8.53;3.50;;;;;;;;;;5012767;28;20437;-66
2022/05/18 01:04:18;;;;;;;10.37;4.07;;;;;;;;;;5002645;28;20447;-67
2022/05/18 01:06:45;;;;;;;7.63;3.80;;;;;;;;;;5010285;28;20423;-66
2022/05/18 01:09:14;;;;;;;7.47;3.80;;;;;;;;;;5010308;28;20478;-67
2022/05/18 01:11:41;;;;;;;11.37;4.00;;;;;;;;;;5009871;28;20427;-66
2022/05/18 01:14:25;;;;;;;9.60;3.63;;;;;;;;;;5010039;28;20426;-66
2022/05/18 01:16:52;;;;;;;6.57;3.70;;;;;;;;;;5009931;28;20439;-67
2022/05/18 01:19:38;;;;;;;7.13;3.67;;;;;;;;;;4994411;28;20505;-67
2022/05/18 01:22:10;;;;;;;9.87;4.30;;;;;;;;;;5030389;28;20426;-66
2022/05/18 01:24:57;;;;;;;9.87;4.33;;;;;;;;;;5033168;28;20406;-66
2022/05/18 01:27:25;;;;;;;8.63;4.40;;;;;;;;;;5008362;28;20443;-66
2022/05/18 01:29:53;;;;;;;8.20;4.47;;;;;;;;;;5009795;28;20789;-66
2022/05/18 01:32:19;;;;;;;8.73;4.20;;;;;;;;;;5009760;28;21038;-66
2022/05/18 01:34:46;;;;;;;10.90;4.40;;;;;;;;;;5009615;28;20521;-67
2022/05/18 01:37:30;;;;;;;12.00;4.10;;;;;;;;;;5009599;28;20459;-66
2022/05/18 01:39:58;;;;;;;6.40;3.57;;;;;;;;;;5024951;28;20469;-66
2022/05/18 01:42:42;;;;;;;7.43;4.00;;;;;;;;;;5029147;28;20984;-66
2022/05/18 01:45:09;;;;;;;5.03;2.90;;;;;;;;;;5027919;28;20945;-66
2022/05/18 01:47:53;;;;;;;7.40;4.27;;;;;;;;;;5029390;28;20929;-66
2022/05/18 01:50:21;;;;;;;9.67;3.63;;;;;;;;;;5026839;28;20454;-66
2022/05/18 01:53:05;;;;;;;7.37;3.60;;;;;;;;;;5013964;28;20406;-66
2022/05/18 01:55:32;;;;;;;8.83;3.87;;;;;;;;;;5029131;28;20430;-66
2022/05/18 01:57:59;;;;;;;7.20;3.70;;;;;;;;;;5029178;28;20469;-66
2022/05/18 02:00:26;;;;;;;9.57;3.47;;;;;;;;;;5028085;28;20453;-66
2022/05/18 02:02:53;;;;;;;7.33;3.50;;;;;;;;;;5028954;28;20880;-66
2022/05/18 02:05:19;;;;;;;8.20;3.33;;;;;;;;;;5023398;28;21274;-66
2022/05/18 02:07:47;;;;;;;8.57;3.93;;;;;;;;;;5009060;28;20500;-67
2022/05/18 02:10:14;;;;;;;10.73;3.60;;;;;;;;;;5009379;28;20835;-66
2022/05/18 02:12:40;;;;;;;10.30;3.97;;;;;;;;;;4991606;28;20431;-66
2022/05/18 02:15:07;;;;;;;6.27;3.50;;;;;;;;;;5008938;28;20518;-66
2022/05/18 02:17:35;;;;;;;6.83;3.67;;;;;;;;;;4990894;28;20462;-65
2022/05/18 02:20:04;;;;;;;6.90;3.40;;;;;;;;;;5008979;28;20431;-67
2022/05/18 02:22:31;;;;;;;6.87;3.00;;;;;;;;;;4991146;28;20416;-66
2022/05/18 02:25:15;;;;;;;8.87;3.70;;;;;;;;;;5009174;28;20422;-67
2022/05/18 02:27:42;;;;;;;6.50;3.30;;;;;;;;;;5008808;28;20439;-67
2022/05/18 02:30:09;;;;;;;7.33;3.57;;;;;;;;;;5026368;28;20465;-66
2022/05/18 02:32:35;;;;;;;5.73;3.40;;;;;;;;;;5011094;28;20446;-66
2022/05/18 02:35:04;;;;;;;11.53;3.73;;;;;;;;;;5010345;28;20439;-66
2022/05/18 02:37:31;;;;;;;9.17;2.90;;;;;;;;;;5010835;28;20469;-65
2022/05/18 02:39:59;;;;;;;10.97;3.30;;;;;;;;;;5038437;28;21338;-66
2022/05/18 02:42:26;;;;;;;10.53;4.23;;;;;;;;;;5048425;28;20433;-66
2022/05/18 02:44:53;;;;;;;9.23;3.47;;;;;;;;;;5017297;28;20450;-66
2022/05/18 02:47:20;;;;;;;6.90;3.27;;;;;;;;;;5008376;28;20810;-66
2022/05/18 02:49:47;;;;;;;10.00;3.27;;;;;;;;;;4991039;28;20930;-66
2022/05/18 02:52:14;;;;;;;6.33;3.67;;;;;;;;;;5008828;28;20534;-66
2022/05/18 02:57:26;;;;;;;10.43;3.83;;;;;;;;;;5008689;28;20990;-66
2022/05/18 02:59:53;;;;;;;8.00;3.20;;;;;;;;;;5008113;28;20523;-66
2022/05/18 03:02:20;;;;;;;6.70;3.50;;;;;;;;;;5027397;28;20868;-66
2022/05/18 03:04:49;;;;;;;7.80;3.70;;;;;;;;;;5027932;28;20466;-66
2022/05/18 03:07:16;;;;;;;10.30;3.60;;;;;;;;;;5028432;28;20905;-66
2022/05/18 03:09:43;;;;;;;8.50;3.80;;;;;;;;;;5027742;28;20850;-66
2022/05/18 03:12:10;;;;;;;9.47;3.60;;;;;;;;;;5028306;28;20798;-66
2022/05/18 03:14:36;;;;;;;9.27;3.53;;;;;;;;;;5028363;28;20439;-66
2022/05/18 03:17:03;;;;;;;9.17;3.93;;;;;;;;;;5027602;28;20521;-65
2022/05/18 03:19:30;;;;;;;12.73;4.13;;;;;;;;;;5025676;28;20449;-66
2022/05/18 03:24:42;;;;;;;9.27;3.90;;;;;;;;;;5023600;28;20786;-66
2022/05/18 03:27:09;;;;;;;12.30;4.07;;;;;;;;;;5026284;28;20426;-68
2022/05/18 03:29:36;;;;;;;7.70;3.60;;;;;;;;;;5026419;28;20433;-67
2022/05/18 03:32:03;;;;;;;10.27;4.17;;;;;;;;;;5031241;28;20949;-67
2022/05/18 03:34:30;;;;;;;8.50;3.77;;;;;;;;;;5032513;28;20982;-66
2022/05/18 03:36:57;;;;;;;8.90;4.00;;;;;;;;;;5021498;28;20430;-66
2022/05/18 03:39:24;;;;;;;6.97;3.67;;;;;;;;;;5020787;28;20582;-68
2022/05/18 03:41:52;;;;;;;6.90;3.93;;;;;;;;;;5007583;28;20924;-67
2022/05/18 03:44:21;;;;;;;8.07;3.80;;;;;;;;;;5023555;28;20438;-67
2022/05/18 03:46:51;;;;;;;9.10;3.87;;;;;;;;;;5023119;28;20426;-67
2022/05/18 03:49:19;;;;;;;12.93;3.97;;;;;;;;;;5023759;28;20784;-67
2022/05/18 03:51:47;;;;;;;8.73;3.93;;;;;;;;;;5023840;28;20572;-66
2022/05/18 03:54:15;;;;;;;10.13;3.53;;;;;;;;;;5025166;28;20623;-67
2022/05/18 03:56:41;;;;;;;9.20;3.93;;;;;;;;;;5023720;28;20450;-67
2022/05/18 03:59:08;;;;;;;9.03;4.03;;;;;;;;;;5025568;28;20481;-68
2022/05/18 04:01:35;;;;;;;10.03;3.47;;;;;;;;;;5026966;28;20850;-67
2022/05/18 04:04:02;;;;;;;8.03;4.00;;;;;;;;;;5026145;28;20789;-68
2022/05/18 04:06:32;;;;;;;11.00;4.23;;;;;;;;;;5026120;28;20532;-69
2022/05/18 04:08:59;;;;;;;10.83;4.40;;;;;;;;;;5026394;28;20434;-68
2022/05/18 04:11:25;;;;;;;13.93;4.17;;;;;;;;;;5026712;28;20434;-67
2022/05/18 04:13:55;;;;;;;11.10;4.13;;;;;;;;;;5025418;28;20426;-68
2022/05/18 04:16:22;;;;;;;16.30;4.80;;;;;;;;;;5023754;28;20499;-68
2022/05/18 04:18:49;;;;;;;16.20;5.80;;;;;;;;;;5010111;28;21042;-67
2022/05/18 04:21:15;;;;;;;11.83;5.20;;;;;;;;;;5025898;28;20424;-67
2022/05/18 04:23:42;;;;;;;14.00;5.07;;;;;;;;;;5024674;28;20455;-67
2022/05/18 04:26:09;;;;;;;15.37;5.30;;;;;;;;;;5024016;28;20434;-67
2022/05/18 04:28:36;;;;;;;17.87;4.80;;;;;;;;;;5025359;28;20444;-68
2022/05/18 04:31:03;;;;;;;11.43;4.80;;;;;;;;;;5014293;28;20942;-67
2022/05/18 04:33:29;;;;;;;11.67;4.87;;;;;;;;;;5024443;28;20521;-67
2022/05/18 04:35:57;;;;;;;15.10;4.50;;;;;;;;;;5023822;28;20985;-67
2022/05/18 04:38:24;;;;;;;10.90;4.87;;;;;;;;;;5023405;28;20485;-66
2022/05/18 04:40:54;;;;;;;12.67;4.90;;;;;;;;;;5024296;28;20543;-67
2022/05/18 04:43:22;;;;;;;16.73;5.80;;;;;;;;;;5030109;28;20794;-66
2022/05/18 04:45:51;;;;;;;9.53;4.60;;;;;;;;;;5025386;28;20455;-66
2022/05/18 04:48:19;;;;;;;10.83;4.97;;;;;;;;;;5028408;28;21205;-67
2022/05/18 04:50:47;;;;;;;15.07;5.83;;;;;;;;;;5029606;28;20473;-67
2022/05/18 04:53:15;;;;;;;18.67;7.73;;;;;;;;;;5030263;28;20433;-66
2022/05/18 04:55:42;;;;;;;14.20;5.37;;;;;;;;;;5028775;28;20417;-68
2022/05/18 04:58:10;;;;;;;15.70;6.03;;;;;;;;;;5029376;28;20473;-66
2022/05/18 05:00:37;;;;;;;10.20;4.37;;;;;;;;;;5035656;28;20455;-66
2022/05/18 05:03:04;;;;;;;5.90;3.40;;;;;;;;;;5027145;28;20430;-67
2022/05/18 05:05:31;;;;;;;7.03;3.50;;;;;;;;;;5027742;28;20450;-67
2022/05/18 05:07:58;;;;;;;15.77;4.10;;;;;;;;;;5029809;28;20452;-67
2022/05/18 05:10:25;;;;;;;12.87;4.60;;;;;;;;;;5017640;28;20474;-66
2022/05/18 05:12:51;;;;;;;14.50;4.93;;;;;;;;;;5023546;28;20977;-66
2022/05/18 05:15:20;;;;;;;21.53;5.50;;;;;;;;;;5023875;28;20481;-66
2022/05/18 05:17:47;;;;;;;18.77;5.57;;;;;;;;;;5022843;28;20523;-65
2022/05/18 05:20:14;;;;;;;19.80;5.23;;;;;;;;;;5023625;28;20890;-65
2022/05/18 05:22:41;;;;;;;22.07;5.80;;;;;;;;;;5022515;28;20446;-66
2022/05/18 05:25:08;;;;;;;18.47;4.60;;;;;;;;;;5021691;28;20472;-68
2022/05/18 05:27:35;;;;;;;27.60;4.40;;;;;;;;;;5022716;28;20445;-66
2022/05/18 05:30:03;;;;;;;17.13;3.10;;;;;;;;;;5020374;28;20817;-68
2022/05/18 05:32:30;;;;;;;3.77;1.50;;;;;;;;;;5026887;28;20798;-65
2022/05/18 05:34:56;;;;;;;6.67;1.67;;;;;;;;;;5029054;28;20214;-65
2022/05/18 05:37:23;;;;;;;3.93;1.20;;;;;;;;;;5027438;28;20195;-65
2022/05/18 05:39:50;;;;;;;2.90;0.70;;;;;;;;;;5029473;28;20739;-65
2022/05/18 05:42:16;;;;;;;5.87;1.10;;;;;;;;;;5029285;28;20266;-65
2022/05/18 05:44:43;;;;;;;2.70;0.57;;;;;;;;;;5029151;28;20191;-65
2022/05/18 05:47:11;;;;;;;1.20;0.57;;;;;;;;;;5029159;28;20286;-65
2022/05/18 05:49:39;;;;;;;0.77;0.43;;;;;;;;;;5029101;28;20250;-66
2022/05/18 05:52:07;;;;;;;1.67;0.60;;;;;;;;;;5028895;28;20304;-65
2022/05/18 05:54:34;;;;;;;1.10;0.50;;;;;;;;;;5028981;28;20190;-66
2022/05/18 05:57:04;;;;;;;2.10;0.60;;;;;;;;;;5029046;28;20184;-65
2022/05/18 05:59:31;;;;;;;3.33;0.70;;;;;;;;;;5020886;28;20242;-68
2022/05/18 06:01:59;;;;;;;1.10;0.50;;;;;;;;;;5004895;28;20931;-67
2022/05/18 06:04:28;;;;;;;1.53;0.63;;;;;;;;;;5005409;28;20253;-68
2022/05/18 06:06:55;;;;;;;0.83;0.57;;;;;;;;;;5022694;28;20263;-68
2022/05/18 06:09:22;;;;;;;1.07;0.50;;;;;;;;;;5023024;28;20282;-68
2022/05/18 06:11:50;;;;;;;2.07;0.80;;;;;;;;;;5022891;28;20188;-68
2022/05/18 06:14:17;;;;;;;2.57;1.10;;;;;;;;;;5023999;28;20301;-68
2022/05/18 06:16:46;;;;;;;1.83;0.77;;;;;;;;;;5022197;28;20590;-68
2022/05/18 06:19:14;;;;;;;2.97;0.77;;;;;;;;;;5024012;28;20326;-67
2022/05/18 06:21:41;;;;;;;3.33;0.80;;;;;;;;;;5023392;28;20839;-67
2022/05/18 06:24:09;;;;;;;2.30;0.70;;;;;;;;;;5023442;28;20325;-68
2022/05/18 06:26:36;;;;;;;3.63;0.97;;;;;;;;;;5022640;28;20279;-68
2022/05/18 06:29:03;;;;;;;3.33;0.90;;;;;;;;;;5023019;28;20215;-67
2022/05/18 06:31:30;;;;;;;2.47;0.83;;;;;;;;;;5022981;28;20218;-68
2022/05/18 06:34:04;;;;;;;3.17;1.00;;;;;;;;;;5023260;28;20204;-66
2022/05/18 06:36:31;;;;;;;4.80;1.03;;;;;;;;;;5023259;28;20179;-67
2022/05/18 06:38:59;;;;;;;1.07;0.90;;;;;;;;;;5028100;28;20340;-69
2022/05/18 06:41:32;;;;;;;3.63;1.10;;;;;;;;;;5032943;28;20190;-68
2022/05/18 06:44:03;;;;;;;3.27;1.20;;;;;;;;;;5026378;28;20537;-68
2022/05/18 06:46:31;;;;;;;4.50;1.10;;;;;;;;;;5012614;28;20211;-69
2022/05/18 06:49:16;;;;;;;9.13;2.30;;;;;;;;;;5033530;28;20519;-69
2022/05/18 06:51:43;;;;;;;3.00;1.10;;;;;;;;;;5028443;28;20183;-69
2022/05/18 06:54:29;;;;;;;5.17;1.40;;;;;;;;;;5016370;28;20858;-70
2022/05/18 06:57:16;;;;;;;3.37;1.40;;;;;;;;;;5029742;28;20578;-69
2022/05/18 06:59:43;;;;;;;3.57;1.43;;;;;;;;;;5025571;28;20277;-68
2022/05/18 07:02:10;;;;;;;5.40;1.40;;;;;;;;;;5032883;28;20875;-69
2022/05/18 07:04:37;;;;;;;4.03;1.30;;;;;;;;;;5028985;28;20686;-69
2022/05/18 07:07:04;;;;;;;8.07;1.40;;;;;;;;;;5036414;28;20593;-67
2022/05/18 07:09:30;;;;;;;4.37;1.40;;;;;;;;;;5031115;28;20213;-67
2022/05/18 07:11:58;;;;;;;6.67;1.20;;;;;;;;;;5036770;28;20270;-67
2022/05/18 07:14:26;;;;;;;4.00;1.17;;;;;;;;;;5031940;28;20409;-68
2022/05/18 07:16:54;;;;;;;3.43;1.03;;;;;;;;;;5006286;28;20233;-69
2022/05/18 07:19:21;;;;;;;3.20;1.23;;;;;;;;;;5030570;28;20281;-67
2022/05/18 07:21:48;;;;;;;2.53;1.00;;;;;;;;;;5030701;28;20191;-68
2022/05/18 07:24:15;;;;;;;5.43;1.43;;;;;;;;;;5030901;28;20759;-67
2022/05/18 07:26:42;;;;;;;5.47;1.30;;;;;;;;;;5027234;28;20551;-67
2022/05/18 07:29:10;;;;;;;2.53;1.20;;;;;;;;;;5008673;28;20213;-68
2022/05/18 07:34:26;;;;;;;3.87;0.87;;;;;;;;;;5016430;28;20755;-68
2022/05/18 07:36:53;;;;;;;5.67;1.13;;;;;;;;;;5031757;28;20244;-68
2022/05/18 07:39:21;;;;;;;3.07;1.00;;;;;;;;;;5030936;28;20227;-67
2022/05/18 07:41:48;;;;;;;5.63;1.50;;;;;;;;;;5028120;28;20192;-69
2022/05/18 07:44:15;;;;;;;3.60;1.03;;;;;;;;;;5029265;28;20206;-69
2022/05/18 07:46:42;;;;;;;6.23;1.10;;;;;;;;;;4987464;28;20495;-65
2022/05/18 07:49:10;;;;;;;3.13;1.10;;;;;;;;;;5029958;28;20176;-65
2022/05/18 07:51:36;;;;;;;3.93;1.10;;;;;;;;;;5020489;28;20198;-68
2022/05/18 07:54:03;;;;;;;6.90;1.30;;;;;;;;;;5024516;28;20548;-66
2022/05/18 07:56:31;;;;;;;3.07;1.20;;;;;;;;;;5023548;28;20199;-66
2022/05/18 07:58:58;;;;;;;4.53;1.27;;;;;;;;;;5024786;28;20247;-67
2022/05/18 08:01:25;;;;;;;5.20;1.50;;;;;;;;;;5024282;28;20199;-68
2022/05/18 08:03:52;;;;;;;4.20;1.40;;;;;;;;;;5024596;28;20176;-68
2022/05/18 08:06:19;;;;;;;5.93;1.30;;;;;;;;;;5004430;28;20195;-65
2022/05/18 08:08:46;;;;;;;4.23;1.33;;;;;;;;;;5013320;28;20909;-65
2022/05/18 08:16:47;;;;;;;21.97;2.53;;;;;;;;;;5026210;28;20682;-63
2022/05/18 08:19:15;;;;;;;4.20;1.10;;;;;;;;;;5028151;28;20222;-69
2022/05/18 08:21:42;;;;;;;3.43;1.20;;;;;;;;;;5024486;28;20218;-64
2022/05/18 08:24:26;;;;;;;4.27;1.40;;;;;;;;;;5018590;28;20159;-66
2022/05/18 08:26:53;;;;;;;3.90;1.10;;;;;;;;;;5028445;28;20704;-66
2022/05/18 08:29:37;;;;;;;7.00;1.50;;;;;;;;;;5028759;28;20182;-63
2022/05/18 08:32:04;;;;;;;4.00;0.97;;;;;;;;;;5043999;28;20191;-65
2022/05/18 08:34:31;;;;;;;4.47;1.20;;;;;;;;;;5043342;28;20222;-64
2022/05/18 08:36:58;;;;;;;3.27;1.10;;;;;;;;;;5026845;28;20199;-64
2022/05/18 08:39:25;;;;;;;4.40;1.10;;;;;;;;;;5026821;28;20909;-64
2022/05/18 08:41:51;;;;;;;2.97;1.10;;;;;;;;;;5028405;28;20197;-64
2022/05/18 08:44:25;;;;;;;4.07;1.00;;;;;;;;;;5010664;28;20552;-66
2022/05/18 08:46:52;;;;;;;6.20;1.47;;;;;;;;;;5026914;28;20273;-65
2022/05/18 08:49:23;;;;;;;4.50;1.17;;;;;;;;;;5028784;28;20913;-65
2022/05/18 08:52:27;;;;;;;7.07;1.40;;;;;;;;;;5026677;28;20206;-63
2022/05/18 08:55:08;;;;;;;5.40;1.30;;;;;;;;;;5028726;28;20195;-66
2022/05/18 08:57:54;;;;;;;4.17;1.13;;;;;;;;;;5028006;28;20594;-64
2022/05/18 09:00:29;;;;;;;5.13;1.30;;;;;;;;;;5021745;28;20305;-66
2022/05/18 09:03:18;;;;;;;6.10;1.20;;;;;;;;;;5027669;28;20634;-65
2022/05/18 09:05:45;;;;;;;4.17;1.10;;;;;;;;;;5026333;28;20242;-65
2022/05/18 09:08:16;;;;;;;3.27;1.30;;;;;;;;;;5026837;28;20192;-65
2022/05/18 09:11:03;;;;;;;7.07;1.20;;;;;;;;;;5028422;28;20195;-65
2022/05/18 09:13:36;;;;;;;4.50;1.27;;;;;;;;;;5010191;28;20195;-66
2022/05/18 09:16:14;;;;;;;7.43;1.43;;;;;;;;;;5026740;28;20199;-65
2022/05/18 09:18:51;;;;;;;6.47;1.57;;;;;;;;;;5027208;28;20206;-65
2022/05/18 09:21:24;;;;;;;5.13;1.50;;;;;;;;;;5027422;28;20206;-65
2022/05/18 09:23:54;;;;;;;6.60;1.40;;;;;;;;;;5025866;28;20202;-64
2022/05/18 09:26:27;;;;;;;4.97;1.60;;;;;;;;;;5021458;28;20924;-66
2022/05/18 09:28:56;;;;;;;6.37;1.17;;;;;;;;;;5026377;28;20195;-67
2022/05/18 09:31:41;;;;;;;5.27;1.60;;;;;;;;;;5027299;28;20275;-63
2022/05/18 09:34:09;;;;;;;2.77;1.30;;;;;;;;;;5027011;28;20210;-64
2022/05/18 09:36:56;;;;;;;7.07;1.63;;;;;;;;;;5025972;28;20175;-65
2022/05/18 09:39:24;;;;;;;4.83;1.53;;;;;;;;;;5027457;28;20235;-64
2022/05/18 09:41:52;;;;;;;3.17;1.40;;;;;;;;;;5009224;28;20202;-64
2022/05/18 09:44:22;;;;;;;5.70;1.30;;;;;;;;;;5041993;28;20295;-65
2022/05/18 09:46:49;;;;;;;6.60;1.40;;;;;;;;;;5026980;28;20191;-65
2022/05/18 09:49:24;;;;;;;4.60;1.50;;;;;;;;;;5027271;28;20225;-65
2022/05/18 09:51:50;;;;;;;8.73;1.50;;;;;;;;;;5008231;28;20207;-65
2022/05/18 09:54:23;;;;;;;7.10;1.50;;;;;;;;;;5025387;28;20211;-64
2022/05/18 09:56:53;;;;;;;9.20;1.70;;;;;;;;;;5027361;28;20191;-64
2022/05/18 09:59:22;;;;;;;4.77;1.37;;;;;;;;;;5025329;28;20218;-66
2022/05/18 10:07:30;;;;;;;5.77;1.60;;;;;;;;;;5004973;28;20203;-67
2022/05/18 10:10:20;;;;;;;4.40;1.47;;;;;;;;;;5021311;28;20191;-66
2022/05/18 10:12:53;;;;;;;4.83;1.20;;;;;;;;;;5007581;28;20222;-66
2022/05/18 10:15:25;;;;;;;6.67;1.30;;;;;;;;;;5017436;28;20207;-66
2022/05/18 10:17:56;;;;;;;1.87;1.13;;;;;;;;;;5009062;28;20666;-67
2022/05/18 10:20:31;;;;;;;5.20;1.10;;;;;;;;;;5024578;28;20798;-67
2022/05/18 10:22:58;;;;;;;1.57;1.00;;;;;;;;;;5023469;28;20693;-67
2022/05/18 10:25:36;;;;;;;4.00;1.33;;;;;;;;;;5025961;28;20198;-68
2022/05/18 10:28:03;;;;;;;4.77;1.03;;;;;;;;;;5008908;28;20207;-68
2022/05/18 10:30:35;;;;;;;5.13;1.00;;;;;;;;;;5022929;28;20648;-66
2022/05/18 10:33:02;;;;;;;2.50;1.13;;;;;;;;;;5025873;28;20663;-66
2022/05/18 10:35:32;;;;;;;3.87;1.00;;;;;;;;;;5025737;28;20258;-68
2022/05/18 10:38:00;;;;;;;3.03;1.13;;;;;;;;;;5025827;28;20219;-67
2022/05/18 10:40:30;;;;;;;2.73;1.00;;;;;;;;;;5023629;28;20199;-64
2022/05/18 10:43:30;;;;;;;2.80;1.00;;;;;;;;;;5034811;28;20586;-66
2022/05/18 10:46:13;;;;;;;1.53;1.10;;;;;;;;;;4982946;28;20195;-64
2022/05/18 10:48:41;;;;;;;3.60;1.30;;;;;;;;;;5024462;28;20202;-66
2022/05/18 10:51:09;;;;;;;1.47;0.90;;;;;;;;;;5024598;28;20191;-67
2022/05/18 10:53:36;;;;;;;1.93;1.10;;;;;;;;;;5024962;28;20203;-65
2022/05/18 10:56:08;;;;;;;3.33;0.93;;;;;;;;;;5026419;28;20245;-65
2022/05/18 10:58:55;;;;;;;4.20;1.07;;;;;;;;;;5024304;28;20241;-69
2022/05/18 11:01:25;;;;;;;5.37;0.90;;;;;;;;;;5018406;28;20617;-66
2022/05/18 11:03:59;;;;;;;3.67;1.07;;;;;;;;;;5025853;28;20897;-66
2022/05/18 11:06:35;;;;;;;2.43;1.00;;;;;;;;;;5022981;28;20194;-66
2022/05/18 11:09:08;;;;;;;4.07;1.30;;;;;;;;;;5025209;28;20261;-65
2022/05/18 11:12:04;;;;;;;2.90;1.10;;;;;;;;;;5025368;28;20700;-65
2022/05/18 11:14:38;;;;;;;4.47;0.90;;;;;;;;;;5004008;28;20207;-65
2022/05/18 11:17:15;;;;;;;3.93;1.20;;;;;;;;;;5025711;28;20760;-66
2022/05/18 11:19:45;;;;;;;2.60;1.10;;;;;;;;;;5024720;28;20215;-65
2022/05/18 11:22:21;;;;;;;4.13;1.00;;;;;;;;;;5022170;28;20813;-65
2022/05/18 11:25:10;;;;;;;5.63;1.00;;;;;;;;;;5026245;28;20614;-67
2022/05/18 11:28:17;;;;;;;6.53;1.33;;;;;;;;;;5025093;28;20234;-64
2022/05/18 11:30:47;;;;;;;4.43;1.00;;;;;;;;;;5025721;28;20227;-67
2022/05/18 11:33:31;;;;;;;3.47;1.00;;;;;;;;;;5025062;28;20175;-68
2022/05/18 11:36:16;;;;;;;2.77;1.07;;;;;;;;;;5024632;28;20192;-65
2022/05/18 11:39:03;;;;;;;2.50;0.90;;;;;;;;;;5025662;28;20230;-66
2022/05/18 11:41:42;;;;;;;5.40;1.07;;;;;;;;;;5025111;28;20215;-67
2022/05/18 11:44:11;;;;;;;2.40;1.10;;;;;;;;;;5011715;28;20202;-66
2022/05/18 11:46:40;;;;;;;2.40;1.20;;;;;;;;;;5026336;28;20184;-66
2022/05/18 11:49:16;;;;;;;2.17;1.10;;;;;;;;;;5028104;28;20234;-65
2022/05/18 11:51:55;;;;;;;4.60;1.17;;;;;;;;;;5029625;28;20220;-66
2022/05/18 11:54:26;;;;;;;6.97;1.30;;;;;;;;;;5031552;28;20273;-66
2022/05/18 11:56:53;;;;;;;2.73;1.10;;;;;;;;;;5014257;28;20197;-66
2022/05/18 11:59:45;;;;;;;3.40;1.00;;;;;;;;;;5031326;28;20187;-66
2022/05/18 12:02:14;;;;;;;4.77;1.00;;;;;;;;;;5031421;28;20659;-67
2022/05/18 12:05:02;;;;;;;2.43;1.00;;;;;;;;;;5031372;28;20175;-66
2022/05/18 12:07:30;;;;;;;10.00;1.93;;;;;;;;;;5031239;28;20292;-66
2022/05/18 12:10:26;;;;;;;5.20;1.00;;;;;;;;;;5031734;28;20538;-66
2022/05/18 12:13:01;;;;;;;6.33;1.20;;;;;;;;;;5031950;28;20555;-65
2022/05/18 12:16:05;;;;;;;5.37;1.37;;;;;;;;;;5031482;28;20627;-66
2022/05/18 12:18:32;;;;;;;4.90;1.00;;;;;;;;;;4981946;28;20235;-66
2022/05/18 12:21:19;;;;;;;2.87;0.90;;;;;;;;;;5031228;28;20288;-66
2022/05/18 12:23:48;;;;;;;4.53;1.00;;;;;;;;;;5031004;28;20222;-66
2022/05/18 12:26:15;;;;;;;5.03;1.33;;;;;;;;;;5031262;28;20198;-66
2022/05/18 12:28:42;;;;;;;4.37;1.10;;;;;;;;;;5013487;28;20274;-66
2022/05/18 12:31:09;;;;;;;4.03;1.10;;;;;;;;;;5013775;28;20198;-66
2022/05/18 12:33:42;;;;;;;2.33;0.90;;;;;;;;;;5013879;28;20234;-66
2022/05/18 12:36:15;;;;;;;2.70;1.10;;;;;;;;;;5030943;28;20184;-66
2022/05/18 12:38:52;;;;;;;2.63;1.17;;;;;;;;;;5030651;28;20223;-67
2022/05/18 12:41:21;;;;;;;3.57;1.10;;;;;;;;;;5031241;28;20281;-67
2022/05/18 12:43:51;;;;;;;5.33;1.27;;;;;;;;;;5029083;28;20183;-67
2022/05/18 12:46:22;;;;;;;2.07;1.10;;;;;;;;;;5033281;28;20662;-67
2022/05/18 12:48:49;;;;;;;8.20;1.60;;;;;;;;;;5032866;28;20179;-67
2022/05/18 12:51:25;;;;;;;3.30;1.07;;;;;;;;;;5050654;28;20716;-67
2022/05/18 12:53:55;;;;;;;4.00;1.00;;;;;;;;;;5050982;28;20657;-67
2022/05/18 12:56:37;;;;;;;8.03;1.00;;;;;;;;;;5032543;28;20565;-66
2022/05/18 12:59:10;;;;;;;2.10;1.20;;;;;;;;;;5050088;28;20201;-66
2022/05/18 13:01:38;;;;;;;2.47;1.10;;;;;;;;;;5049820;28;20213;-66
2022/05/18 13:04:22;;;;;;;3.93;1.13;;;;;;;;;;5050175;28;20171;-67
2022/05/18 13:06:50;;;;;;;3.10;1.30;;;;;;;;;;5049753;28;20187;-66
2022/05/18 13:09:35;;;;;;;2.37;1.00;;;;;;;;;;5032510;28;20191;-67
2022/05/18 13:12:17;;;;;;;6.80;1.47;;;;;;;;;;5031843;28;20258;-67
2022/05/18 13:14:44;;;;;;;5.50;1.20;;;;;;;;;;5049987;28;20218;-67
2022/05/18 13:17:11;;;;;;;4.30;1.23;;;;;;;;;;5049813;28;20649;-66
2022/05/18 13:19:44;;;;;;;2.20;1.20;;;;;;;;;;5049649;28;20187;-67
2022/05/18 13:22:16;;;;;;;3.93;1.40;;;;;;;;;;5049650;28;20183;-67
2022/05/18 13:24:50;;;;;;;4.50;1.17;;;;;;;;;;5049447;28;20187;-67
2022/05/18 13:27:34;;;;;;;3.60;1.10;;;;;;;;;;5034474;28;20178;-67
2022/05/18 13:30:02;;;;;;;6.63;1.40;;;;;;;;;;5049429;28;20266;-67
2022/05/18 13:32:29;;;;;;;9.33;1.43;;;;;;;;;;5049476;28;20183;-67
2022/05/18 13:35:05;;;;;;;2.53;1.10;;;;;;;;;;5050185;28;20264;-67
2022/05/18 13:37:33;;;;;;;8.53;1.60;;;;;;;;;;5049416;28;20191;-67
2022/05/18 13:40:20;;;;;;;4.53;1.30;;;;;;;;;;5029875;28;20752;-67
2022/05/18 13:42:48;;;;;;;2.50;0.97;;;;;;;;;;5022215;28;20238;-67
2022/05/18 13:45:15;;;;;;;12.23;1.83;;;;;;;;;;5009611;28;20570;-67
2022/05/18 13:47:46;;;;;;;5.87;1.30;;;;;;;;;;4991995;28;20193;-67
2022/05/18 13:50:37;;;;;;;7.43;1.60;;;;;;;;;;4978295;28;20176;-67
2022/05/18 13:53:06;;;;;;;9.47;5.37;;;;;;;;;;4975506;28;20222;-67
2022/05/18 13:55:53;;;;;;;2.63;0.90;;;;;;;;;;5009541;28;20187;-67
2022/05/18 13:58:23;;;;;;;4.00;1.57;;;;;;;;;;4992334;28;20188;-67
2022/05/18 14:01:09;;;;;;;4.00;1.23;;;;;;;;;;4995721;28;20307;-67
2022/05/18 14:03:40;;;;;;;5.43;1.00;;;;;;;;;;5009383;28;20189;-67
2022/05/18 14:06:24;;;;;;;5.50;1.13;;;;;;;;;;5009488;28;20176;-67
2022/05/18 14:09:02;;;;;;;3.63;1.13;;;;;;;;;;5009226;28;20271;-67
2022/05/18 14:11:30;;;;;;;3.33;0.90;;;;;;;;;;4991733;28;20246;-67
2022/05/18 14:13:57;;;;;;;3.77;1.00;;;;;;;;;;4991052;28;20266;-67
2022/05/18 14:16:47;;;;;;;4.23;0.97;;;;;;;;;;5008626;28;20191;-67
2022/05/18 14:19:16;;;;;;;6.00;1.30;;;;;;;;;;5009422;28;20192;-67
2022/05/18 14:22:00;;;;;;;3.27;0.90;;;;;;;;;;4994073;28;20204;-67
2022/05/18 14:24:30;;;;;;;4.90;1.20;;;;;;;;;;4991768;28;20220;-67
2022/05/18 14:26:58;;;;;;;2.60;0.90;;;;;;;;;;4992051;28;20199;-68
2022/05/18 14:29:28;;;;;;;3.20;1.00;;;;;;;;;;5009075;28;20202;-67
2022/05/18 14:31:55;;;;;;;3.53;1.30;;;;;;;;;;4991580;28;20196;-67
2022/05/18 14:34:33;;;;;;;4.37;1.63;;;;;;;;;;4991866;28;20207;-67
2022/05/18 14:37:02;;;;;;;5.67;1.37;;;;;;;;;;4991410;28;20194;-68
2022/05/18 14:39:31;;;;;;;5.13;1.50;;;;;;;;;;5004984;28;20227;-67
2022/05/18 14:41:59;;;;;;;24.23;3.07;;;;;;;;;;5027299;28;20293;-67
2022/05/18 14:44:27;;;;;;;7.33;1.73;;;;;;;;;;5043796;28;20195;-67
2022/05/18 14:47:17;;;;;;;3.80;0.90;;;;;;;;;;5028500;28;20183;-68
2022/05/18 14:49:46;;;;;;;3.43;0.93;;;;;;;;;;5028275;28;20589;-67
2022/05/18 14:52:23;;;;;;;4.23;1.17;;;;;;;;;;5028364;28;20172;-67
2022/05/18 14:54:50;;;;;;;2.73;1.00;;;;;;;;;;5043884;28;20183;-67
2022/05/18 14:57:35;;;;;;;2.97;1.10;;;;;;;;;;5041320;28;20669;-68
2022/05/18 15:00:05;;;;;;;3.13;1.00;;;;;;;;;;5027943;28;20188;-68
2022/05/18 15:02:32;;;;;;;2.97;0.93;;;;;;;;;;5028253;28;20192;-66
2022/05/18 15:05:00;;;;;;;5.10;1.20;;;;;;;;;;5043336;28;20202;-68
2022/05/18 15:07:53;;;;;;;2.60;1.10;;;;;;;;;;5043691;28;20176;-68
2022/05/18 15:10:20;;;;;;;5.20;1.23;;;;;;;;;;5025508;28;20920;-68
2022/05/18 15:12:55;;;;;;;2.93;0.80;;;;;;;;;;5027956;28;20168;-68
2022/05/18 15:15:21;;;;;;;3.80;0.93;;;;;;;;;;5026295;28;20282;-67
2022/05/18 15:17:56;;;;;;;4.13;1.10;;;;;;;;;;5030650;28;20179;-68
2022/05/18 15:20:32;;;;;;;2.07;1.07;;;;;;;;;;5029499;28;20226;-68
2022/05/18 15:23:11;;;;;;;4.43;1.10;;;;;;;;;;5026667;28;21008;-67